sensor_id;sensor_type;location;lat;lon;timestamp;pressure;altitude;pressure_sealevel;temperature;humidity
52957;BME280;38819;42.692;23.342;2022-08-30T00:00:36;95448.88;;;22.32;63.53
52957;BME280;38819;42.692;23.342;2022-08-30T00:03:20;95441.19;;;22.21;64.11
52957;BME280;38819;42.692;23.342;2022-08-30T00:05:46;95444.06;;;22.09;65.08
52957;BME280;38819;42.692;23.342;2022-08-30T00:08:12;95447.47;;;22.02;65.29
52957;BME280;38819;42.692;23.342;2022-08-30T00:10:39;95441.75;;;22.11;64.89
52957;BME280;38819;42.692;23.342;2022-08-30T00:13:05;95441.97;;;22.02;65.43
52957;BME280;38819;42.692;23.342;2022-08-30T00:15:31;95435.31;;;21.84;65.62
52957;BME280;38819;42.692;23.342;2022-08-30T00:17:57;95430.81;;;21.76;65.74
52957;BME280;38819;42.692;23.342;2022-08-30T00:20:26;95443.56;;;21.84;65.46
52957;BME280;38819;42.692;23.342;2022-08-30T00:22:52;95431.75;;;21.83;64.61
52957;BME280;38819;42.692;23.342;2022-08-30T00:25:18;95431.38;;;21.85;65.15
52957;BME280;38819;42.692;23.342;2022-08-30T00:27:44;95432.69;;;21.91;64.92
52957;BME280;38819;42.692;23.342;2022-08-30T00:30:10;95427.34;;;21.98;64.92
52957;BME280;38819;42.692;23.342;2022-08-30T00:32:36;95428.66;;;22.05;64.17
52957;BME280;38819;42.692;23.342;2022-08-30T00:35:03;95432.59;;;22.04;63.54
52957;BME280;38819;42.692;23.342;2022-08-30T00:37:29;95435.31;;;22.04;63.42
52957;BME280;38819;42.692;23.342;2022-08-30T00:39:55;95435.31;;;22.04;63.26
52957;BME280;38819;42.692;23.342;2022-08-30T00:42:21;95432.19;;;22.05;64.06
52957;BME280;38819;42.692;23.342;2022-08-30T00:44:47;95449.59;;;22.09;64.22
52957;BME280;38819;42.692;23.342;2022-08-30T00:47:13;95449.22;;;22.11;64.67
52957;BME280;38819;42.692;23.342;2022-08-30T00:49:43;95443.19;;;22.05;65.01
52957;BME280;38819;42.692;23.342;2022-08-30T00:52:09;95448.25;;;22.03;65.26
52957;BME280;38819;42.692;23.342;2022-08-30T00:54:39;95444.44;;;22.08;65.15
52957;BME280;38819;42.692;23.342;2022-08-30T00:57:06;95442.34;;;22.01;64.93
52957;BME280;38819;42.692;23.342;2022-08-30T00:59:32;95444.66;;;21.99;65.03
52957;BME280;38819;42.692;23.342;2022-08-30T01:01:58;95442.69;;;21.99;64.84
52957;BME280;38819;42.692;23.342;2022-08-30T01:04:25;95443.06;;;21.98;65.51
52957;BME280;38819;42.692;23.342;2022-08-30T01:06:51;95447.41;;;21.99;65.30
52957;BME280;38819;42.692;23.342;2022-08-30T01:09:17;95447.03;;;22.00;65.10
52957;BME280;38819;42.692;23.342;2022-08-30T01:11:44;95445.88;;;22.01;65.18
52957;BME280;38819;42.692;23.342;2022-08-30T01:14:10;95440.22;;;21.94;65.13
52957;BME280;38819;42.692;23.342;2022-08-30T01:16:38;95439.19;;;21.83;64.55
52957;BME280;38819;42.692;23.342;2022-08-30T01:19:09;95440.66;;;21.77;64.24
52957;BME280;38819;42.692;23.342;2022-08-30T01:21:51;95433.03;;;21.70;64.19
52957;BME280;38819;42.692;23.342;2022-08-30T01:24:18;95428.91;;;21.60;65.00
52957;BME280;38819;42.692;23.342;2022-08-30T01:26:44;95439.63;;;21.50;65.55
52957;BME280;38819;42.692;23.342;2022-08-30T01:29:13;95438.31;;;21.43;66.10
52957;BME280;38819;42.692;23.342;2022-08-30T01:31:40;95443.81;;;21.43;65.87
52957;BME280;38819;42.692;23.342;2022-08-30T01:34:06;95442.47;;;21.37;66.30
52957;BME280;38819;42.692;23.342;2022-08-30T01:36:36;95443.09;;;21.31;66.43
52957;BME280;38819;42.692;23.342;2022-08-30T01:39:03;95439.13;;;21.12;66.92
52957;BME280;38819;42.692;23.342;2022-08-30T01:41:32;95449.69;;;21.10;67.31
52957;BME280;38819;42.692;23.342;2022-08-30T01:44:00;95435.94;;;21.10;67.41
52957;BME280;38819;42.692;23.342;2022-08-30T01:46:30;95446.81;;;21.06;67.27
52957;BME280;38819;42.692;23.342;2022-08-30T01:48:57;95435.56;;;21.12;67.22
52957;BME280;38819;42.692;23.342;2022-08-30T01:51:25;95444.81;;;21.03;67.49
52957;BME280;38819;42.692;23.342;2022-08-30T01:53:51;95427.50;;;21.03;67.36
52957;BME280;38819;42.692;23.342;2022-08-30T01:56:17;95435.47;;;21.08;67.53
52957;BME280;38819;42.692;23.342;2022-08-30T01:58:44;95432.38;;;21.09;67.26
52957;BME280;38819;42.692;23.342;2022-08-30T02:01:12;95422.81;;;21.19;67.06
52957;BME280;38819;42.692;23.342;2022-08-30T02:03:40;95421.41;;;21.25;67.17
52957;BME280;38819;42.692;23.342;2022-08-30T02:06:06;95416.78;;;21.29;67.02
52957;BME280;38819;42.692;23.342;2022-08-30T02:08:32;95422.53;;;21.24;66.94
52957;BME280;38819;42.692;23.342;2022-08-30T02:10:58;95415.19;;;21.28;67.21
52957;BME280;38819;42.692;23.342;2022-08-30T02:13:25;95420.84;;;21.36;66.99
52957;BME280;38819;42.692;23.342;2022-08-30T02:15:50;95415.00;;;21.37;66.97
52957;BME280;38819;42.692;23.342;2022-08-30T02:18:19;95414.38;;;21.44;66.66
52957;BME280;38819;42.692;23.342;2022-08-30T02:20:44;95412.75;;;21.43;66.70
52957;BME280;38819;42.692;23.342;2022-08-30T02:23:09;95418.19;;;21.39;67.11
52957;BME280;38819;42.692;23.342;2022-08-30T02:25:35;95418.19;;;21.39;67.07
52957;BME280;38819;42.692;23.342;2022-08-30T02:28:00;95423.59;;;21.36;67.16
52957;BME280;38819;42.692;23.342;2022-08-30T02:30:26;95430.06;;;21.27;67.39
52957;BME280;38819;42.692;23.342;2022-08-30T02:32:51;95427.25;;;21.24;66.78
52957;BME280;38819;42.692;23.342;2022-08-30T02:35:17;95421.59;;;21.17;67.40
52957;BME280;38819;42.692;23.342;2022-08-30T02:37:42;95418.47;;;21.18;67.13
52957;BME280;38819;42.692;23.342;2022-08-30T02:40:08;95405.47;;;21.15;67.39
52957;BME280;38819;42.692;23.342;2022-08-30T02:42:34;95412.44;;;21.13;67.64
52957;BME280;38819;42.692;23.342;2022-08-30T02:45:00;95421.41;;;21.09;67.83
52957;BME280;38819;42.692;23.342;2022-08-30T02:47:25;95422.09;;;21.06;67.84
52957;BME280;38819;42.692;23.342;2022-08-30T02:49:51;95423.28;;;21.05;67.76
52957;BME280;38819;42.692;23.342;2022-08-30T02:52:16;95416.53;;;21.03;68.02
52957;BME280;38819;42.692;23.342;2022-08-30T02:54:44;95420.09;;;21.03;68.12
52957;BME280;38819;42.692;23.342;2022-08-30T02:57:09;95421.47;;;20.65;69.37
52957;BME280;38819;42.692;23.342;2022-08-30T02:59:36;95423.44;;;20.65;69.14
52957;BME280;38819;42.692;23.342;2022-08-30T03:02:06;95423.28;;;20.61;69.46
52957;BME280;38819;42.692;23.342;2022-08-30T03:04:31;95414.59;;;20.43;70.15
52957;BME280;38819;42.692;23.342;2022-08-30T03:06:57;95409.59;;;20.33;70.68
52957;BME280;38819;42.692;23.342;2022-08-30T03:09:23;95412.25;;;20.29;70.96
52957;BME280;38819;42.692;23.342;2022-08-30T03:11:48;95417.47;;;20.34;70.78
52957;BME280;38819;42.692;23.342;2022-08-30T03:14:14;95426.97;;;20.37;70.64
52957;BME280;38819;42.692;23.342;2022-08-30T03:16:39;95425.38;;;20.36;71.00
52957;BME280;38819;42.692;23.342;2022-08-30T03:19:05;95420.22;;;20.34;71.00
52957;BME280;38819;42.692;23.342;2022-08-30T03:21:30;95421.47;;;20.37;70.86
52957;BME280;38819;42.692;23.342;2022-08-30T03:23:55;95428.19;;;20.40;70.84
52957;BME280;38819;42.692;23.342;2022-08-30T03:26:21;95427.31;;;20.35;70.95
52957;BME280;38819;42.692;23.342;2022-08-30T03:28:46;95427.66;;;20.34;70.97
52957;BME280;38819;42.692;23.342;2022-08-30T03:31:12;95436.19;;;20.45;70.56
52957;BME280;38819;42.692;23.342;2022-08-30T03:33:37;95428.75;;;20.45;70.91
52957;BME280;38819;42.692;23.342;2022-08-30T03:36:05;95427.97;;;20.45;70.75
52957;BME280;38819;42.692;23.342;2022-08-30T03:38:31;95423.91;;;20.54;70.28
52957;BME280;38819;42.692;23.342;2022-08-30T03:40:56;95427.00;;;20.53;70.45
52957;BME280;38819;42.692;23.342;2022-08-30T03:43:21;95433.94;;;20.63;70.22
52957;BME280;38819;42.692;23.342;2022-08-30T03:45:47;95422.75;;;20.55;70.71
52957;BME280;38819;42.692;23.342;2022-08-30T03:48:12;95432.03;;;20.63;70.55
52957;BME280;38819;42.692;23.342;2022-08-30T03:50:38;95435.09;;;20.62;70.33
52957;BME280;38819;42.692;23.342;2022-08-30T03:53:04;95431.88;;;20.60;70.68
52957;BME280;38819;42.692;23.342;2022-08-30T03:55:30;95428.47;;;20.63;69.97
52957;BME280;38819;42.692;23.342;2022-08-30T03:57:55;95426.47;;;20.47;71.00
52957;BME280;38819;42.692;23.342;2022-08-30T04:00:21;95426.84;;;20.62;70.39
52957;BME280;38819;42.692;23.342;2022-08-30T04:02:47;95424.00;;;20.58;70.52
52957;BME280;38819;42.692;23.342;2022-08-30T04:05:12;95431.75;;;20.68;70.25
52957;BME280;38819;42.692;23.342;2022-08-30T04:07:38;95435.13;;;20.78;69.97
52957;BME280;38819;42.692;23.342;2022-08-30T04:10:05;95430.97;;;20.84;69.90
52957;BME280;38819;42.692;23.342;2022-08-30T04:12:31;95428.56;;;20.82;69.75
52957;BME280;38819;42.692;23.342;2022-08-30T04:14:56;95443.91;;;20.83;69.70
52957;BME280;38819;42.692;23.342;2022-08-30T04:17:22;95440.00;;;20.84;69.49
52957;BME280;38819;42.692;23.342;2022-08-30T04:19:47;95443.91;;;20.83;69.11
52957;BME280;38819;42.692;23.342;2022-08-30T04:22:13;95444.78;;;20.87;68.87
52957;BME280;38819;42.692;23.342;2022-08-30T04:24:38;95453.09;;;20.91;68.51
52957;BME280;38819;42.692;23.342;2022-08-30T04:27:06;95448.06;;;20.93;68.28
52957;BME280;38819;42.692;23.342;2022-08-30T04:29:33;95446.56;;;20.96;67.99
52957;BME280;38819;42.692;23.342;2022-08-30T04:31:59;95450.00;;;20.92;68.39
52957;BME280;38819;42.692;23.342;2022-08-30T04:34:24;95457.97;;;20.98;68.25
52957;BME280;38819;42.692;23.342;2022-08-30T04:36:50;95454.44;;;20.97;68.20
52957;BME280;38819;42.692;23.342;2022-08-30T04:39:17;95453.66;;;20.97;68.49
52957;BME280;38819;42.692;23.342;2022-08-30T04:41:42;95457.19;;;20.97;68.55
52957;BME280;38819;42.692;23.342;2022-08-30T04:44:08;95456.75;;;20.95;68.26
52957;BME280;38819;42.692;23.342;2022-08-30T04:46:34;95458.41;;;21.00;68.33
52957;BME280;38819;42.692;23.342;2022-08-30T04:49:00;95459.84;;;20.94;68.65
52957;BME280;38819;42.692;23.342;2022-08-30T04:51:25;95462.69;;;20.97;68.96
52957;BME280;38819;42.692;23.342;2022-08-30T04:53:51;95465.06;;;20.99;69.12
52957;BME280;38819;42.692;23.342;2022-08-30T04:56:19;95475.88;;;21.07;68.84
52957;BME280;38819;42.692;23.342;2022-08-30T04:58:48;95477.22;;;21.14;69.15
52957;BME280;38819;42.692;23.342;2022-08-30T05:01:14;95482.00;;;21.17;69.12
52957;BME280;38819;42.692;23.342;2022-08-30T05:03:40;95479.78;;;21.22;69.04
52957;BME280;38819;42.692;23.342;2022-08-30T05:06:06;95481.13;;;21.28;68.59
52957;BME280;38819;42.692;23.342;2022-08-30T05:08:31;95478.97;;;21.38;68.50
52957;BME280;38819;42.692;23.342;2022-08-30T05:10:57;95486.06;;;21.39;68.20
52957;BME280;38819;42.692;23.342;2022-08-30T05:13:22;95478.47;;;21.32;68.49
52957;BME280;38819;42.692;23.342;2022-08-30T05:15:48;95489.44;;;21.32;68.44
52957;BME280;38819;42.692;23.342;2022-08-30T05:18:14;95490.22;;;21.33;68.67
52957;BME280;38819;42.692;23.342;2022-08-30T05:20:40;95490.22;;;21.33;68.53
52957;BME280;38819;42.692;23.342;2022-08-30T05:23:05;95490.31;;;21.36;68.78
52957;BME280;38819;42.692;23.342;2022-08-30T05:25:35;95489.25;;;21.41;68.54
52957;BME280;38819;42.692;23.342;2022-08-30T05:28:00;95487.66;;;21.40;68.78
52957;BME280;38819;42.692;23.342;2022-08-30T05:30:26;95492.44;;;21.43;68.43
52957;BME280;38819;42.692;23.342;2022-08-30T05:32:53;95482.97;;;21.40;68.59
52957;BME280;38819;42.692;23.342;2022-08-30T05:35:19;95485.44;;;21.45;68.15
52957;BME280;38819;42.692;23.342;2022-08-30T05:37:45;95486.34;;;21.34;68.75
52957;BME280;38819;42.692;23.342;2022-08-30T05:40:12;95492.53;;;21.31;68.96
52957;BME280;38819;42.692;23.342;2022-08-30T05:42:38;95494.03;;;21.28;69.00
52957;BME280;38819;42.692;23.342;2022-08-30T05:45:08;95490.06;;;21.25;68.94
52957;BME280;38819;42.692;23.342;2022-08-30T05:47:34;95495.72;;;21.33;68.95
52957;BME280;38819;42.692;23.342;2022-08-30T05:50:01;95501.50;;;21.43;68.82
52957;BME280;38819;42.692;23.342;2022-08-30T05:52:27;95485.91;;;21.48;68.50
52957;BME280;38819;42.692;23.342;2022-08-30T05:54:54;95480.66;;;21.58;68.00
52957;BME280;38819;42.692;23.342;2022-08-30T05:57:20;95485.72;;;21.56;67.91
52957;BME280;38819;42.692;23.342;2022-08-30T05:59:46;95490.88;;;21.58;68.13
52957;BME280;38819;42.692;23.342;2022-08-30T06:02:12;95488.66;;;21.48;68.26
52957;BME280;38819;42.692;23.342;2022-08-30T06:04:37;95490.13;;;21.45;68.66
52957;BME280;38819;42.692;23.342;2022-08-30T06:07:03;95491.84;;;21.34;68.78
52957;BME280;38819;42.692;23.342;2022-08-30T06:09:29;95496.09;;;21.31;68.42
52957;BME280;38819;42.692;23.342;2022-08-30T06:11:55;95494.94;;;21.16;69.23
52957;BME280;38819;42.692;23.342;2022-08-30T06:14:22;95498.56;;;21.20;69.20
52957;BME280;38819;42.692;23.342;2022-08-30T06:16:47;95497.31;;;21.02;69.16
52957;BME280;38819;42.692;23.342;2022-08-30T06:19:14;95496.34;;;20.94;69.57
52957;BME280;38819;42.692;23.342;2022-08-30T06:21:40;95494.94;;;21.00;69.56
52957;BME280;38819;42.692;23.342;2022-08-30T06:24:08;95497.31;;;21.02;69.81
52957;BME280;38819;42.692;23.342;2022-08-30T06:26:40;95499.47;;;21.08;69.95
52957;BME280;38819;42.692;23.342;2022-08-30T06:29:08;95508.47;;;21.09;68.92
52957;BME280;38819;42.692;23.342;2022-08-30T06:31:34;95511.75;;;21.15;68.81
52957;BME280;38819;42.692;23.342;2022-08-30T06:33:59;95514.25;;;21.20;68.84
52957;BME280;38819;42.692;23.342;2022-08-30T06:36:25;95518.69;;;21.24;68.86
52957;BME280;38819;42.692;23.342;2022-08-30T06:38:55;95520.28;;;21.41;68.50
52957;BME280;38819;42.692;23.342;2022-08-30T06:41:23;95522.25;;;21.57;68.04
52957;BME280;38819;42.692;23.342;2022-08-30T06:43:50;95511.44;;;21.64;68.35
52957;BME280;38819;42.692;23.342;2022-08-30T06:46:21;95518.44;;;21.61;68.27
52957;BME280;38819;42.692;23.342;2022-08-30T06:48:47;95523.28;;;21.68;68.28
52957;BME280;38819;42.692;23.342;2022-08-30T06:51:12;95530.50;;;21.57;66.84
52957;BME280;38819;42.692;23.342;2022-08-30T06:53:39;95530.75;;;21.68;66.43
52957;BME280;38819;42.692;23.342;2022-08-30T06:56:07;95518.50;;;21.81;66.29
52957;BME280;38819;42.692;23.342;2022-08-30T06:58:35;95521.22;;;21.97;66.56
52957;BME280;38819;42.692;23.342;2022-08-30T07:01:02;95519.19;;;21.94;66.64
52957;BME280;38819;42.692;23.342;2022-08-30T07:03:27;95521.22;;;21.97;66.29
52957;BME280;38819;42.692;23.342;2022-08-30T07:05:54;95518.28;;;22.06;67.17
52957;BME280;38819;42.692;23.342;2022-08-30T07:08:20;95523.06;;;22.09;67.28
52957;BME280;38819;42.692;23.342;2022-08-30T07:10:47;95521.25;;;22.16;66.28
52957;BME280;38819;42.692;23.342;2022-08-30T07:13:13;95524.97;;;22.24;66.23
52957;BME280;38819;42.692;23.342;2022-08-30T07:15:43;95531.16;;;22.37;66.36
52957;BME280;38819;42.692;23.342;2022-08-30T07:18:10;95518.75;;;22.47;66.49
52957;BME280;38819;42.692;23.342;2022-08-30T07:20:55;95524.94;;;22.60;66.45
52957;BME280;38819;42.692;23.342;2022-08-30T07:23:20;95519.13;;;22.65;65.93
52957;BME280;38819;42.692;23.342;2022-08-30T07:25:47;95518.09;;;22.73;65.15
52957;BME280;38819;42.692;23.342;2022-08-30T07:28:13;95527.25;;;22.77;64.69
52957;BME280;38819;42.692;23.342;2022-08-30T07:30:40;95518.47;;;22.71;65.07
52957;BME280;38819;42.692;23.342;2022-08-30T07:33:05;95530.19;;;22.68;64.34
52957;BME280;38819;42.692;23.342;2022-08-30T07:35:31;95528.34;;;22.72;64.75
52957;BME280;38819;42.692;23.342;2022-08-30T07:37:57;95526.84;;;22.79;64.48
52957;BME280;38819;42.692;23.342;2022-08-30T07:40:22;95523.75;;;22.80;65.82
52957;BME280;38819;42.692;23.342;2022-08-30T07:42:48;95520.63;;;22.82;65.67
52957;BME280;38819;42.692;23.342;2022-08-30T07:45:13;95525.72;;;22.80;65.20
52957;BME280;38819;42.692;23.342;2022-08-30T07:47:39;95530.06;;;22.81;65.40
52957;BME280;38819;42.692;23.342;2022-08-30T07:50:06;95534.25;;;22.74;65.29
52957;BME280;38819;42.692;23.342;2022-08-30T07:52:31;95536.78;;;22.83;65.02
52957;BME280;38819;42.692;23.342;2022-08-30T07:54:57;95541.50;;;22.83;65.09
52957;BME280;38819;42.692;23.342;2022-08-30T07:57:24;95527.88;;;22.90;65.55
52957;BME280;38819;42.692;23.342;2022-08-30T07:59:50;95537.38;;;22.92;65.21
52957;BME280;38819;42.692;23.342;2022-08-30T08:02:16;95534.31;;;22.98;64.81
52957;BME280;38819;42.692;23.342;2022-08-30T08:04:42;95541.50;;;23.02;64.00
52957;BME280;38819;42.692;23.342;2022-08-30T08:07:08;95547.16;;;23.09;63.52
52957;BME280;38819;42.692;23.342;2022-08-30T08:09:33;95544.53;;;23.17;63.65
52957;BME280;38819;42.692;23.342;2022-08-30T08:11:59;95540.69;;;23.21;63.55
52957;BME280;38819;42.692;23.342;2022-08-30T08:14:25;95538.84;;;23.29;63.36
52957;BME280;38819;42.692;23.342;2022-08-30T08:16:51;95542.88;;;23.35;63.15
52957;BME280;38819;42.692;23.342;2022-08-30T08:19:16;95535.06;;;23.37;63.01
52957;BME280;38819;42.692;23.342;2022-08-30T08:21:44;95539.44;;;23.42;63.00
52957;BME280;38819;42.692;23.342;2022-08-30T08:24:09;95546.25;;;23.48;63.12
52957;BME280;38819;42.692;23.342;2022-08-30T08:26:37;95542.78;;;23.51;62.74
52957;BME280;38819;42.692;23.342;2022-08-30T08:29:02;95545.22;;;23.56;62.43
52957;BME280;38819;42.692;23.342;2022-08-30T08:31:28;95539.34;;;23.58;62.56
52957;BME280;38819;42.692;23.342;2022-08-30T08:33:54;95535.34;;;23.55;62.33
52957;BME280;38819;42.692;23.342;2022-08-30T08:36:20;95539.75;;;23.60;62.26
52957;BME280;38819;42.692;23.342;2022-08-30T08:38:46;95538.28;;;23.66;62.10
52957;BME280;38819;42.692;23.342;2022-08-30T08:45:07;95538.81;;;23.75;62.27
52957;BME280;38819;42.692;23.342;2022-08-30T08:48:02;95543.97;;;23.77;62.52
52957;BME280;38819;42.692;23.342;2022-08-30T08:50:29;95547.53;;;23.77;62.29
52957;BME280;38819;42.692;23.342;2022-08-30T08:53:16;95543.69;;;23.82;62.55
52957;BME280;38819;42.692;23.342;2022-08-30T08:56:04;95545.63;;;23.81;62.62
52957;BME280;38819;42.692;23.342;2022-08-30T08:58:41;95545.63;;;23.81;62.52
52957;BME280;38819;42.692;23.342;2022-08-30T09:01:09;95535.84;;;23.84;62.30
52957;BME280;38819;42.692;23.342;2022-08-30T09:03:35;95543.00;;;23.89;62.12
52957;BME280;38819;42.692;23.342;2022-08-30T09:06:03;95545.75;;;23.89;61.81
52957;BME280;38819;42.692;23.342;2022-08-30T09:08:31;95546.19;;;23.91;62.11
52957;BME280;38819;42.692;23.342;2022-08-30T09:11:02;95549.31;;;23.89;62.59
52957;BME280;38819;42.692;23.342;2022-08-30T09:13:28;95547.03;;;23.95;63.22
52957;BME280;38819;42.692;23.342;2022-08-30T09:15:56;95539.53;;;23.95;63.18
52957;BME280;38819;42.692;23.342;2022-08-30T09:21:07;95548.25;;;23.97;62.78
52957;BME280;38819;42.692;23.342;2022-08-30T09:23:33;95538.44;;;24.00;63.09
52957;BME280;38819;42.692;23.342;2022-08-30T09:26:04;95549.78;;;23.95;63.27
52957;BME280;38819;42.692;23.342;2022-08-30T09:28:50;95551.03;;;23.97;63.28
52957;BME280;38819;42.692;23.342;2022-08-30T09:34:02;95542.53;;;24.10;62.01
52957;BME280;38819;42.692;23.342;2022-08-30T09:36:45;95542.94;;;24.12;61.59
52957;BME280;38819;42.692;23.342;2022-08-30T09:39:24;95544.81;;;23.81;62.27
52957;BME280;38819;42.692;23.342;2022-08-30T09:41:50;95539.53;;;23.72;62.07
52957;BME280;38819;42.692;23.342;2022-08-30T09:44:19;95541.59;;;23.52;62.87
52957;BME280;38819;42.692;23.342;2022-08-30T09:46:55;95540.84;;;23.32;63.32
52957;BME280;38819;42.692;23.342;2022-08-30T09:49:28;95543.38;;;22.98;64.25
52957;BME280;38819;42.692;23.342;2022-08-30T10:00:21;95533.44;;;22.93;65.50
52957;BME280;38819;42.692;23.342;2022-08-30T10:03:07;95529.91;;;22.93;65.83
52957;BME280;38819;42.692;23.342;2022-08-30T10:11:30;95525.16;;;22.70;66.84
52957;BME280;38819;42.692;23.342;2022-08-30T10:14:19;95512.91;;;22.68;67.17
52957;BME280;38819;42.692;23.342;2022-08-30T10:17:07;95505.34;;;22.65;67.61
52957;BME280;38819;42.692;23.342;2022-08-30T10:20:09;95502.66;;;22.68;67.19
52957;BME280;38819;42.692;23.342;2022-08-30T10:22:41;95497.75;;;22.78;66.92
52957;BME280;38819;42.692;23.342;2022-08-30T10:25:22;95498.47;;;22.74;66.71
52957;BME280;38819;42.692;23.342;2022-08-30T10:28:03;95505.00;;;22.66;67.44
52957;BME280;38819;42.692;23.342;2022-08-30T10:30:35;95500.81;;;22.72;67.60
52957;BME280;38819;42.692;23.342;2022-08-30T10:33:10;95500.13;;;22.79;67.41
52957;BME280;38819;42.692;23.342;2022-08-30T10:35:52;95488.75;;;22.81;67.51
52957;BME280;38819;42.692;23.342;2022-08-30T10:40:54;95492.69;;;23.03;67.05
52957;BME280;38819;42.692;23.342;2022-08-30T10:46:18;95481.88;;;23.13;66.81
52957;BME280;38819;42.692;23.342;2022-08-30T10:48:46;95486.81;;;23.24;66.01
52957;BME280;38819;42.692;23.342;2022-08-30T10:51:35;95487.28;;;23.29;66.40
52957;BME280;38819;42.692;23.342;2022-08-30T10:54:09;95484.47;;;23.49;65.50
52957;BME280;38819;42.692;23.342;2022-08-30T10:56:39;95482.38;;;23.42;65.42
52957;BME280;38819;42.692;23.342;2022-08-30T10:59:05;95471.19;;;23.58;65.37
52957;BME280;38819;42.692;23.342;2022-08-30T11:10:07;95469.69;;;23.88;64.17
52957;BME280;38819;42.692;23.342;2022-08-30T11:13:02;95463.91;;;23.96;63.72
52957;BME280;38819;42.692;23.342;2022-08-30T11:15:51;95462.78;;;24.01;63.12
52957;BME280;38819;42.692;23.342;2022-08-30T11:18:18;95466.69;;;24.00;62.99
52957;BME280;38819;42.692;23.342;2022-08-30T11:20:47;95457.34;;;24.08;63.13
52957;BME280;38819;42.692;23.342;2022-08-30T11:23:33;95457.00;;;24.10;62.99
52957;BME280;38819;42.692;23.342;2022-08-30T11:31:08;95444.94;;;24.25;61.40
52957;BME280;38819;42.692;23.342;2022-08-30T11:39:07;95454.72;;;24.19;60.36
52957;BME280;38819;42.692;23.342;2022-08-30T11:46:45;95443.09;;;24.33;59.53
52957;BME280;38819;42.692;23.342;2022-08-30T11:51:55;95439.28;;;24.45;59.02
52957;BME280;38819;42.692;23.342;2022-08-30T11:54:38;95432.66;;;24.53;57.97
52957;BME280;38819;42.692;23.342;2022-08-30T12:00:24;95424.16;;;24.69;58.59
52957;BME280;38819;42.692;23.342;2022-08-30T12:02:58;95432.47;;;24.69;58.99
52957;BME280;38819;42.692;23.342;2022-08-30T12:08:06;95418.41;;;24.85;57.79
52957;BME280;38819;42.692;23.342;2022-08-30T12:10:42;95414.06;;;24.84;56.55
52957;BME280;38819;42.692;23.342;2022-08-30T12:13:09;95410.47;;;24.80;57.11
52957;BME280;38819;42.692;23.342;2022-08-30T12:18:58;95401.13;;;24.91;57.22
52957;BME280;38819;42.692;23.342;2022-08-30T12:21:35;95410.59;;;24.94;56.15
52957;BME280;38819;42.692;23.342;2022-08-30T12:24:22;95395.19;;;24.89;56.10
52957;BME280;38819;42.692;23.342;2022-08-30T12:26:50;95390.81;;;24.88;55.87
52957;BME280;38819;42.692;23.342;2022-08-30T12:29:22;95388.13;;;24.95;56.47
52957;BME280;38819;42.692;23.342;2022-08-30T12:31:52;95387.31;;;24.91;56.73
52957;BME280;38819;42.692;23.342;2022-08-30T12:39:27;95375.94;;;25.04;56.62
52957;BME280;38819;42.692;23.342;2022-08-30T12:41:54;95372.44;;;25.10;56.35
52957;BME280;38819;42.692;23.342;2022-08-30T12:44:24;95374.44;;;25.13;56.24
52957;BME280;38819;42.692;23.342;2022-08-30T12:46:57;95369.72;;;25.14;56.22
52957;BME280;38819;42.692;23.342;2022-08-30T12:49:26;95369.72;;;25.14;56.34
52957;BME280;38819;42.692;23.342;2022-08-30T12:51:52;95361.41;;;25.14;56.09
52957;BME280;38819;42.692;23.342;2022-08-30T12:54:21;95372.16;;;25.23;54.99
52957;BME280;38819;42.692;23.342;2022-08-30T12:56:55;95359.59;;;25.29;55.18
52957;BME280;38819;42.692;23.342;2022-08-30T12:59:50;95364.31;;;25.28;53.15
52957;BME280;38819;42.692;23.342;2022-08-30T13:02:22;95365.44;;;25.24;53.28
52957;BME280;38819;42.692;23.342;2022-08-30T13:04:50;95366.63;;;25.23;52.45
52957;BME280;38819;42.692;23.342;2022-08-30T13:07:32;95363.56;;;25.31;52.87
52957;BME280;38819;42.692;23.342;2022-08-30T13:10:18;95361.56;;;25.28;52.75
52957;BME280;38819;42.692;23.342;2022-08-30T13:13:04;95369.78;;;25.21;51.92
52957;BME280;38819;42.692;23.342;2022-08-30T13:15:34;95358.00;;;25.28;51.89
52957;BME280;38819;42.692;23.342;2022-08-30T13:18:15;95362.78;;;25.31;54.45
52957;BME280;38819;42.692;23.342;2022-08-30T13:20:43;95348.59;;;25.36;55.22
52957;BME280;38819;42.692;23.342;2022-08-30T13:23:09;95354.94;;;25.44;55.08
52957;BME280;38819;42.692;23.342;2022-08-30T13:25:36;95354.13;;;25.40;54.71
52957;BME280;38819;42.692;23.342;2022-08-30T13:28:02;95359.97;;;25.27;54.51
52957;BME280;38819;42.692;23.342;2022-08-30T13:30:29;95350.50;;;25.28;54.55
52957;BME280;38819;42.692;23.342;2022-08-30T13:32:54;95343.38;;;25.27;54.23
52957;BME280;38819;42.692;23.342;2022-08-30T13:35:20;95341.44;;;25.28;53.35
52957;BME280;38819;42.692;23.342;2022-08-30T13:37:46;95342.69;;;25.41;52.76
52957;BME280;38819;42.692;23.342;2022-08-30T13:40:13;95338.84;;;25.60;52.88
52957;BME280;38819;42.692;23.342;2022-08-30T13:42:39;95337.69;;;25.65;53.05
52957;BME280;38819;42.692;23.342;2022-08-30T13:45:07;95333.69;;;25.55;51.35
52957;BME280;38819;42.692;23.342;2022-08-30T13:47:34;95333.72;;;25.62;51.25
52957;BME280;38819;42.692;23.342;2022-08-30T13:49:59;95330.97;;;25.66;51.91
52957;BME280;38819;42.692;23.342;2022-08-30T13:52:25;95326.66;;;25.72;51.61
52957;BME280;38819;42.692;23.342;2022-08-30T13:54:52;95318.00;;;25.81;50.80
52957;BME280;38819;42.692;23.342;2022-08-30T13:57:20;95312.84;;;25.79;50.60
52957;BME280;38819;42.692;23.342;2022-08-30T13:59:46;95320.75;;;25.81;50.76
52957;BME280;38819;42.692;23.342;2022-08-30T14:02:12;95319.19;;;25.83;50.15
52957;BME280;38819;42.692;23.342;2022-08-30T14:04:37;95321.97;;;25.83;49.53
52957;BME280;38819;42.692;23.342;2022-08-30T14:07:03;95305.84;;;25.96;49.64